Date,TemperatureHighF,TemperatureAvgF,TemperatureLowF,DewpointHighF,DewpointAvgF,DewpointLowF,HumidityHigh,HumidityAvg,HumidityLow,PressureMaxIn,PressureMinIn,WindSpeedMaxMPH,WindSpeedAvgMPH,GustSpeedMaxMPH,PrecipitationSumIn
2013-4-3,61.0,49.0,36.0,23.7,19.4,15.5,49,32,20,30.27,30.11,18,4,18,0.00
2013-4-4,49.0,39.8,35.0,39.0,27.3,13.8,96,67,26,30.33,29.97,25,7,25,1.00
2013-4-5,66.0,49.1,34.0,51.4,39.2,31.7,97,74,32,30.00,29.81,16,4,16,0.01
2013-4-6,68.0,53.4,38.0,45.2,34.3,28.4,97,54,25,30.19,30.00,16,2,17,0.00
2013-4-7,71.0,57.6,41.0,49.0,41.3,33.0,97,58,33,30.24,29.99,18,4,23,0.00
2013-4-8,77.0,65.6,54.0,60.4,53.0,48.4,98,68,39,30.10,29.91,18,5,19,0.00
2013-4-9,84.0,70.9,58.0,61.0,55.7,50.0,98,63,33,30.11,29.92,16,4,18,0.00
2013-4-10,86.0,73.7,60.0,63.8,58.3,53.2,98,62,35,30.02,29.80,16,5,17,0.00
2013-4-11,80.0,70.4,61.0,69.5,62.0,56.1,99,77,46,29.92,29.67,23,5,23,0.00
2013-4-12,81.0,70.8,61.0,70.5,58.0,38.0,99,69,34,29.73,29.47,22,7,26,0.35
2013-4-13,74.0,61.9,45.0,50.2,39.2,31.6,97,47,23,29.97,29.73,17,4,20,0.00
2013-4-14,81.0,64.5,45.0,56.4,42.2,34.4,97,53,20,30.07,29.88,15,2,15,0.00
2013-4-15,67.0,60.6,55.0,63.6,58.6,53.0,98,94,77,30.14,29.95,15,3,16,0.18
2013-4-16,81.0,66.7,56.0,66.9,60.6,55.2,99,84,46,30.20,30.05,8,1,11,0.00
2013-4-17,84.0,69.1,58.0,67.5,60.6,55.2,99,78,40,30.16,29.96,13,2,13,0.00
2013-4-18,81.0,70.9,63.0,68.1,61.7,53.6,99,76,41,30.10,29.89,14,2,14,0.00
2013-4-19,77.0,67.3,58.0,72.2,66.1,54.8,99,96,82,29.94,29.62,21,4,21,0.45
2013-4-20,65.0,53.9,44.0,56.0,34.2,27.2,93,50,27,30.25,29.80,19,5,20,0.31
2013-4-21,63.0,51.6,42.0,40.4,35.3,29.7,81,55,36,30.43,30.23,20,5,22,0.00
2013-4-22,64.0,51.3,37.0,43.4,34.4,23.0,96,59,25,30.46,30.17,22,6,24,0.00
2013-4-23,73.0,56.7,46.0,56.6,48.3,40.6,98,77,43,30.24,30.01,16,3,19,0.02
2013-4-24,74.0,62.4,51.0,61.6,55.2,50.2,98,80,49,30.09,29.87,23,4,24,0.02
2013-4-25,73.0,59.5,49.0,61.8,39.6,29.0,96,52,21,30.25,29.93,19,4,19,0.00
2013-4-26,73.0,58.9,46.0,47.8,35.2,29.2,93,44,23,30.37,30.21,16,2,17,0.00
2013-4-27,69.0,60.0,54.0,58.7,49.0,39.1,98,68,51,30.31,30.20,10,1,10,0.00
2013-4-28,57.0,54.4,52.0,56.4,53.6,51.2,98,97,97,30.20,30.01,12,1,12,1.44
2013-4-29,74.0,61.0,54.0,67.6,59.4,53.2,99,95,73,30.01,29.86,6,1,9,0.33
2013-4-30,67.0,59.7,54.0,64.9,58.6,53.2,98,96,85,30.14,29.96,13,3,14,0.00